createdAt,value
2023-03-01T00:05:27.310Z,-1.4
2023-03-01T00:35:32.285Z,-2.2
2023-03-01T00:55:35.564Z,-2.4
2023-03-01T01:05:37.230Z,-2.5
2023-03-01T01:15:38.469Z,-2.7
2023-03-01T01:25:39.866Z,-2.8
2023-03-01T01:35:41.773Z,-2.7
2023-03-01T01:45:42.724Z,-2.8
2023-03-01T01:55:44.203Z,-3
2023-03-01T02:05:45.603Z,-3.2
2023-03-01T02:15:47.021Z,-3.2
2023-03-01T02:35:50.888Z,-3.4
2023-03-01T03:25:58.350Z,-3.9
2023-03-01T03:35:59.591Z,-4.1
2023-03-01T03:46:00.773Z,-4.2
2023-03-01T04:16:06.154Z,-4.1
2023-03-01T04:36:09.249Z,-4.3
2023-03-01T04:46:10.944Z,-4.6
2023-03-01T04:56:12.742Z,-4.7
2023-03-01T05:06:14.401Z,-4.7
2023-03-01T05:16:15.888Z,-4.8
2023-03-01T05:36:19.404Z,-5
2023-03-01T05:46:21.241Z,-5.1
2023-03-01T05:56:22.580Z,-4.8
2023-03-01T06:06:24.292Z,-4.8
2023-03-01T06:16:25.424Z,-5
2023-03-01T06:26:27.354Z,-4.9
2023-03-01T06:36:29.199Z,-4.6
2023-03-01T06:46:30.936Z,-3.8
2023-03-01T06:56:33.008Z,-3
2023-03-01T07:06:34.663Z,-2.6
2023-03-01T07:16:36.372Z,-2.4
2023-03-01T07:26:37.711Z,-2
2023-03-01T07:36:39.407Z,-1.7
2023-03-01T07:46:40.927Z,-1.3
2023-03-01T07:56:42.719Z,-0.8
2023-03-01T08:06:44.131Z,-0.3
2023-03-01T08:16:45.477Z,0.1
2023-03-01T08:26:46.619Z,0.6
2023-03-01T08:36:47.750Z,1.1
2023-03-01T08:46:49.659Z,1.5
2023-03-01T08:56:51.527Z,2.2
2023-03-01T09:06:53.498Z,2.6
2023-03-01T09:16:55.319Z,2.8
2023-03-01T09:26:57.089Z,3.5
2023-03-01T09:36:58.205Z,3.7
2023-03-01T09:46:59.951Z,4
2023-03-01T09:57:01.219Z,4.2
2023-03-01T10:07:02.952Z,4.6
2023-03-01T10:17:04.283Z,4.8
2023-03-01T10:27:05.994Z,5.2
2023-03-01T10:37:07.092Z,5.3
2023-03-01T10:47:08.772Z,5.7
2023-03-01T10:57:10.385Z,5.9
2023-03-01T11:07:12.002Z,5.8
2023-03-01T11:17:13.269Z,6.2
2023-03-01T11:27:15.331Z,6.1
2023-03-01T11:37:17.337Z,6.3
2023-03-01T11:47:18.577Z,6.7
2023-03-01T11:57:20.102Z,6.7
2023-03-01T12:07:21.915Z,7.3
2023-03-01T12:17:23.613Z,6.9
2023-03-01T12:37:26.625Z,7.1
2023-03-01T12:57:29.362Z,7.6
2023-03-01T13:07:31.393Z,7.3
2023-03-01T13:17:32.484Z,7.2
2023-03-01T13:27:33.807Z,7
2023-03-01T13:47:37.093Z,7.7
2023-03-01T13:57:38.981Z,7.5
2023-03-01T14:27:50.165Z,7.8
2023-03-01T14:37:51.634Z,7.6
2023-03-01T14:47:53.593Z,7.3
2023-03-01T14:57:55.020Z,7.4
2023-03-01T15:07:57.080Z,7.5
2023-03-01T15:17:58.767Z,7.3
2023-03-01T15:28:00.434Z,7
2023-03-01T15:38:02.112Z,6.8
2023-03-01T15:58:04.866Z,6.3
2023-03-01T16:08:05.975Z,5.9
2023-03-01T16:48:12.757Z,4.9
2023-03-01T16:58:14.655Z,4.6
2023-03-01T17:08:15.856Z,4.3
2023-03-01T17:18:17.113Z,3.9
2023-03-01T17:38:20.620Z,3.2
2023-03-01T17:48:22.134Z,2.8
2023-03-01T17:58:23.947Z,2.8
2023-03-01T18:08:25.878Z,2.9
2023-03-01T18:18:27.238Z,2.6
2023-03-01T18:28:28.968Z,2.8
2023-03-01T18:38:30.790Z,2.7
2023-03-01T18:58:34.241Z,1.8
2023-03-01T19:08:36.070Z,1.5
2023-03-01T19:18:37.442Z,1.7
2023-03-01T19:28:39.727Z,2
2023-03-01T19:38:40.637Z,2.1
2023-03-01T20:28:48.259Z,1.7
2023-03-01T20:38:49.554Z,1.6
2023-03-01T20:48:50.960Z,1.5
2023-03-01T20:58:52.800Z,1.5
2023-03-01T21:18:55.899Z,1.4
2023-03-01T21:28:57.753Z,1.3
2023-03-01T21:38:59.652Z,1.4
2023-03-01T21:49:01.703Z,1.4
2023-03-01T22:19:06.810Z,1
2023-03-01T22:29:08.789Z,0.9
2023-03-01T22:39:10.428Z,0.8
2023-03-01T23:19:15.820Z,0.7
2023-03-01T23:29:17.148Z,0.6
2023-03-01T23:39:18.924Z,0.6
2023-03-01T23:49:20.484Z,0.6
2023-03-01T23:59:22.523Z,0.5
